sensor_id;sensor_type;location;lat;lon;timestamp;pressure;altitude;pressure_sealevel;temperature;humidity
71966;BME280;59836;52.132;5.442;2023-03-08T00:00:09;100134.69;;;0.19;89.52
71966;BME280;59836;52.132;5.442;2023-03-08T00:02:37;100145.94;;;0.21;89.54
71966;BME280;59836;52.132;5.442;2023-03-08T00:05:05;100150.31;;;0.15;89.50
71966;BME280;59836;52.132;5.442;2023-03-08T00:07:32;100154.03;;;0.14;89.45
71966;BME280;59836;52.132;5.442;2023-03-08T00:09:58;100150.31;;;0.15;89.78
71966;BME280;59836;52.132;5.442;2023-03-08T00:12:25;100139.25;;;0.11;89.25
71966;BME280;59836;52.132;5.442;2023-03-08T00:14:51;100136.38;;;0.13;89.53
71966;BME280;59836;52.132;5.442;2023-03-08T00:17:18;100134.75;;;0.12;89.43
71966;BME280;59836;52.132;5.442;2023-03-08T00:19:44;100139.25;;;0.11;89.67
71966;BME280;59836;52.132;5.442;2023-03-08T00:22:11;100140.53;;;0.09;89.38
71966;BME280;59836;52.132;5.442;2023-03-08T00:24:37;100147.69;;;0.08;89.14
71966;BME280;59836;52.132;5.442;2023-03-08T00:27:04;100148.72;;;0.07;89.29
71966;BME280;59836;52.132;5.442;2023-03-08T00:29:30;100141.75;;;0.06;89.34
71966;BME280;59836;52.132;5.442;2023-03-08T00:31:56;100143.63;;;0.06;89.09
71966;BME280;59836;52.132;5.442;2023-03-08T00:34:23;100140.13;;;0.05;89.47
71966;BME280;59836;52.132;5.442;2023-03-08T00:36:49;100134.59;;;0.07;89.35
71966;BME280;59836;52.132;5.442;2023-03-08T00:39:17;100137.47;;;0.05;89.02
71966;BME280;59836;52.132;5.442;2023-03-08T00:41:43;100136.06;;;0.03;89.27
71966;BME280;59836;52.132;5.442;2023-03-08T00:44:10;100132.78;;;0.01;89.13
71966;BME280;59836;52.132;5.442;2023-03-08T00:46:36;100130.94;;;0.01;89.42
71966;BME280;59836;52.132;5.442;2023-03-08T00:49:03;100139.75;;;0.02;89.46
71966;BME280;59836;52.132;5.442;2023-03-08T00:51:30;100134.25;;;-0.04;89.60
71966;BME280;59836;52.132;5.442;2023-03-08T00:53:56;100131.59;;;-0.04;89.76
71966;BME280;59836;52.132;5.442;2023-03-08T00:56:23;100127.91;;;-0.03;89.32
71966;BME280;59836;52.132;5.442;2023-03-08T00:58:49;100127.09;;;-0.03;89.74
71966;BME280;59836;52.132;5.442;2023-03-08T01:01:17;100118.88;;;-0.02;89.60
71966;BME280;59836;52.132;5.442;2023-03-08T01:03:44;100123.59;;;-0.04;89.42
71966;BME280;59836;52.132;5.442;2023-03-08T01:06:13;100117.22;;;-0.03;89.75
71966;BME280;59836;52.132;5.442;2023-03-08T01:08:40;100117.84;;;-0.01;89.33
71966;BME280;59836;52.132;5.442;2023-03-08T01:11:17;100107.59;;;-0.04;89.22
71966;BME280;59836;52.132;5.442;2023-03-08T01:13:44;100106.56;;;-0.03;89.45
71966;BME280;59836;52.132;5.442;2023-03-08T01:16:23;100110.28;;;-0.04;89.26
71966;BME280;59836;52.132;5.442;2023-03-08T01:18:50;100107.84;;;-0.05;89.66
71966;BME280;59836;52.132;5.442;2023-03-08T01:21:17;100096.34;;;-0.06;89.68
71966;BME280;59836;52.132;5.442;2023-03-08T01:23:43;100076.47;;;-0.10;89.59
71966;BME280;59836;52.132;5.442;2023-03-08T01:26:15;100086.13;;;-0.09;89.40
71966;BME280;59836;52.132;5.442;2023-03-08T01:28:42;100078.78;;;-0.13;89.44
71966;BME280;59836;52.132;5.442;2023-03-08T01:31:15;100087.59;;;-0.13;89.77
71966;BME280;59836;52.132;5.442;2023-03-08T01:33:42;100087.38;;;-0.11;89.37
71966;BME280;59836;52.132;5.442;2023-03-08T01:36:12;100084.91;;;-0.13;89.65
71966;BME280;59836;52.132;5.442;2023-03-08T01:38:40;100090.69;;;-0.16;89.85
71966;BME280;59836;52.132;5.442;2023-03-08T01:41:19;100076.56;;;-0.17;89.45
71966;BME280;59836;52.132;5.442;2023-03-08T01:43:46;100076.75;;;-0.18;89.45
71966;BME280;59836;52.132;5.442;2023-03-08T01:51:35;100068.59;;;-0.23;89.08
71966;BME280;59836;52.132;5.442;2023-03-08T01:54:11;100057.13;;;-0.24;89.01
71966;BME280;59836;52.132;5.442;2023-03-08T01:56:40;100050.19;;;-0.25;89.48
71966;BME280;59836;52.132;5.442;2023-03-08T01:59:08;100050.53;;;-0.21;89.22
71966;BME280;59836;52.132;5.442;2023-03-08T02:01:35;100042.97;;;-0.24;89.53
71966;BME280;59836;52.132;5.442;2023-03-08T02:04:02;100040.75;;;-0.27;89.13
71966;BME280;59836;52.132;5.442;2023-03-08T02:06:29;100030.53;;;-0.31;89.52
71966;BME280;59836;52.132;5.442;2023-03-08T02:08:55;100034.81;;;-0.30;89.33
71966;BME280;59836;52.132;5.442;2023-03-08T02:11:23;100032.16;;;-0.30;89.27
71966;BME280;59836;52.132;5.442;2023-03-08T02:13:51;100020.69;;;-0.30;89.42
71966;BME280;59836;52.132;5.442;2023-03-08T02:16:19;100035.06;;;-0.31;89.17
71966;BME280;59836;52.132;5.442;2023-03-08T02:18:57;100027.50;;;-0.34;89.65
71966;BME280;59836;52.132;5.442;2023-03-08T02:21:26;100025.63;;;-0.34;89.74
71966;BME280;59836;52.132;5.442;2023-03-08T02:23:53;100017.44;;;-0.32;89.94
71966;BME280;59836;52.132;5.442;2023-03-08T02:26:20;100018.25;;;-0.32;89.77
71966;BME280;59836;52.132;5.442;2023-03-08T02:28:47;100011.28;;;-0.33;89.85
71966;BME280;59836;52.132;5.442;2023-03-08T02:31:14;100011.28;;;-0.33;89.56
71966;BME280;59836;52.132;5.442;2023-03-08T02:33:41;100008.00;;;-0.35;89.71
71966;BME280;59836;52.132;5.442;2023-03-08T02:36:08;100002.69;;;-0.35;89.71
71966;BME280;59836;52.132;5.442;2023-03-08T02:38:35;100012.09;;;-0.32;89.52
71966;BME280;59836;52.132;5.442;2023-03-08T02:41:01;100014.97;;;-0.34;89.71
71966;BME280;59836;52.132;5.442;2023-03-08T02:43:28;100001.66;;;-0.34;89.94
71966;BME280;59836;52.132;5.442;2023-03-08T02:45:54;100000.84;;;-0.34;89.91
71966;BME280;59836;52.132;5.442;2023-03-08T02:48:20;99994.09;;;-0.37;89.71
71966;BME280;59836;52.132;5.442;2023-03-08T02:50:47;99990.41;;;-0.36;89.60
71966;BME280;59836;52.132;5.442;2023-03-08T02:53:13;99996.31;;;-0.34;89.87
71966;BME280;59836;52.132;5.442;2023-03-08T02:55:40;99992.03;;;-0.35;89.59
71966;BME280;59836;52.132;5.442;2023-03-08T02:58:07;99987.72;;;-0.36;89.94
71966;BME280;59836;52.132;5.442;2023-03-08T03:00:36;99993.91;;;-0.35;89.98
71966;BME280;59836;52.132;5.442;2023-03-08T03:03:02;99987.72;;;-0.36;89.44
71966;BME280;59836;52.132;5.442;2023-03-08T03:05:29;99985.06;;;-0.36;89.76
71966;BME280;59836;52.132;5.442;2023-03-08T03:07:55;99974.41;;;-0.36;89.95
71966;BME280;59836;52.132;5.442;2023-03-08T03:10:23;99980.19;;;-0.39;89.90
71966;BME280;59836;52.132;5.442;2023-03-08T03:12:50;99980.19;;;-0.39;89.72
71966;BME280;59836;52.132;5.442;2023-03-08T03:15:17;99982.69;;;-0.44;89.79
71966;BME280;59836;52.132;5.442;2023-03-08T03:17:43;99994.97;;;-0.43;89.64
71966;BME280;59836;52.132;5.442;2023-03-08T03:20:10;99985.34;;;-0.44;89.95
71966;BME280;59836;52.132;5.442;2023-03-08T03:22:36;99985.34;;;-0.44;90.04
71966;BME280;59836;52.132;5.442;2023-03-08T03:25:04;99984.53;;;-0.45;90.16
71966;BME280;59836;52.132;5.442;2023-03-08T03:27:30;99975.72;;;-0.45;90.38
71966;BME280;59836;52.132;5.442;2023-03-08T03:29:57;99980.25;;;-0.46;90.32
71966;BME280;59836;52.132;5.442;2023-03-08T03:32:24;99977.94;;;-0.42;90.62
71966;BME280;59836;52.132;5.442;2023-03-08T03:34:50;99976.47;;;-0.38;90.73
71966;BME280;59836;52.132;5.442;2023-03-08T03:37:16;99973.38;;;-0.35;91.06
71966;BME280;59836;52.132;5.442;2023-03-08T03:39:43;99971.13;;;-0.31;90.86
71966;BME280;59836;52.132;5.442;2023-03-08T03:42:09;99963.03;;;-0.24;91.33
71966;BME280;59836;52.132;5.442;2023-03-08T03:44:36;99954.59;;;-0.21;91.39
71966;BME280;59836;52.132;5.442;2023-03-08T03:47:03;99948.84;;;-0.18;91.22
71966;BME280;59836;52.132;5.442;2023-03-08T03:49:29;99945.72;;;-0.15;91.05
71966;BME280;59836;52.132;5.442;2023-03-08T03:51:56;99938.94;;;-0.11;91.37
71966;BME280;59836;52.132;5.442;2023-03-08T03:54:22;99932.34;;;-0.08;91.46
71966;BME280;59836;52.132;5.442;2023-03-08T03:56:49;99932.13;;;-0.07;91.88
71966;BME280;59836;52.132;5.442;2023-03-08T03:59:15;99936.84;;;-0.09;91.40
71966;BME280;59836;52.132;5.442;2023-03-08T04:01:42;99921.69;;;-0.08;91.72
71966;BME280;59836;52.132;5.442;2023-03-08T04:04:09;99926.19;;;-0.09;91.63
71966;BME280;59836;52.132;5.442;2023-03-08T04:06:36;99928.25;;;-0.11;91.71
71966;BME280;59836;52.132;5.442;2023-03-08T04:09:06;99933.59;;;-0.11;91.74
71966;BME280;59836;52.132;5.442;2023-03-08T04:11:36;99940.56;;;-0.10;91.80
71966;BME280;59836;52.132;5.442;2023-03-08T04:14:03;99939.91;;;-0.05;92.06
71966;BME280;59836;52.132;5.442;2023-03-08T04:16:35;99939.69;;;-0.04;92.13
71966;BME280;59836;52.132;5.442;2023-03-08T04:19:04;99927.53;;;0.01;92.31
71966;BME280;59836;52.132;5.442;2023-03-08T04:21:31;99941.44;;;0.03;92.01
71966;BME280;59836;52.132;5.442;2023-03-08T04:23:57;99943.88;;;0.04;92.09
71966;BME280;59836;52.132;5.442;2023-03-08T04:26:26;99937.31;;;0.07;92.18
71966;BME280;59836;52.132;5.442;2023-03-08T04:28:52;99921.31;;;0.07;92.03
71966;BME280;59836;52.132;5.442;2023-03-08T04:31:27;99915.97;;;0.07;92.38
71966;BME280;59836;52.132;5.442;2023-03-08T04:33:54;99918.50;;;0.02;92.21
71966;BME280;59836;52.132;5.442;2023-03-08T04:36:21;99920.56;;;-0.01;92.44
71966;BME280;59836;52.132;5.442;2023-03-08T04:38:48;99919.09;;;0.04;92.32
71966;BME280;59836;52.132;5.442;2023-03-08T04:41:15;99909.22;;;0.04;92.42
71966;BME280;59836;52.132;5.442;2023-03-08T04:43:47;99905.75;;;0.04;92.42
71966;BME280;59836;52.132;5.442;2023-03-08T04:46:16;99905.75;;;0.04;92.52
71966;BME280;59836;52.132;5.442;2023-03-08T04:48:43;99901.03;;;0.06;92.60
71966;BME280;59836;52.132;5.442;2023-03-08T04:51:11;99897.97;;;0.02;92.24
71966;BME280;59836;52.132;5.442;2023-03-08T04:53:38;99887.09;;;0.04;92.82
71966;BME280;59836;52.132;5.442;2023-03-08T04:56:07;99878.06;;;0.05;92.44
71966;BME280;59836;52.132;5.442;2023-03-08T04:58:35;99874.81;;;0.03;92.23
71966;BME280;59836;52.132;5.442;2023-03-08T05:01:19;99865.88;;;-0.03;91.50
71966;BME280;59836;52.132;5.442;2023-03-08T05:03:47;99867.34;;;-0.07;91.32
71966;BME280;59836;52.132;5.442;2023-03-08T05:06:18;99869.63;;;-0.11;92.02
71966;BME280;59836;52.132;5.442;2023-03-08T05:08:45;99861.03;;;-0.13;91.67
71966;BME280;59836;52.132;5.442;2023-03-08T05:11:20;99861.50;;;-0.16;91.29
71966;BME280;59836;52.132;5.442;2023-03-08T05:13:47;99854.53;;;-0.17;91.38
71966;BME280;59836;52.132;5.442;2023-03-08T05:16:14;99853.72;;;-0.18;91.34
71966;BME280;59836;52.132;5.442;2023-03-08T05:18:40;99854.97;;;-0.20;91.41
71966;BME280;59836;52.132;5.442;2023-03-08T05:21:14;99849.66;;;-0.20;91.49
71966;BME280;59836;52.132;5.442;2023-03-08T05:23:41;99847.56;;;-0.18;91.81
71966;BME280;59836;52.132;5.442;2023-03-08T05:26:10;99843.72;;;-0.22;92.03
71966;BME280;59836;52.132;5.442;2023-03-08T05:28:37;99826.94;;;-0.23;92.08
71966;BME280;59836;52.132;5.442;2023-03-08T05:31:12;99817.75;;;-0.27;92.08
71966;BME280;59836;52.132;5.442;2023-03-08T05:33:39;99809.31;;;-0.24;92.30
71966;BME280;59836;52.132;5.442;2023-03-08T05:36:07;99818.13;;;-0.23;92.27
71966;BME280;59836;52.132;5.442;2023-03-08T05:38:34;99798.88;;;-0.25;92.43
71966;BME280;59836;52.132;5.442;2023-03-08T05:41:05;99801.34;;;-0.24;92.21
71966;BME280;59836;52.132;5.442;2023-03-08T05:43:32;99796.00;;;-0.24;92.63
71966;BME280;59836;52.132;5.442;2023-03-08T05:46:02;99795.75;;;-0.22;92.27
71966;BME280;59836;52.132;5.442;2023-03-08T05:48:29;99784.50;;;-0.24;92.56
71966;BME280;59836;52.132;5.442;2023-03-08T05:50:57;99775.47;;;-0.23;92.78
71966;BME280;59836;52.132;5.442;2023-03-08T05:53:24;99772.16;;;-0.19;92.56
71966;BME280;59836;52.132;5.442;2023-03-08T05:55:50;99760.69;;;-0.19;92.93
71966;BME280;59836;52.132;5.442;2023-03-08T05:58:17;99756.97;;;-0.18;93.07
71966;BME280;59836;52.132;5.442;2023-03-08T06:00:43;99752.03;;;-0.14;93.06
71966;BME280;59836;52.132;5.442;2023-03-08T06:03:09;99754.44;;;-0.13;92.74
71966;BME280;59836;52.132;5.442;2023-03-08T06:05:36;99748.66;;;-0.10;92.73
71966;BME280;59836;52.132;5.442;2023-03-08T06:08:03;99746.25;;;-0.11;92.96
71966;BME280;59836;52.132;5.442;2023-03-08T06:10:29;99745.41;;;-0.12;93.12
71966;BME280;59836;52.132;5.442;2023-03-08T06:12:55;99742.28;;;-0.09;93.12
71966;BME280;59836;52.132;5.442;2023-03-08T06:15:22;99746.59;;;-0.08;93.00
71966;BME280;59836;52.132;5.442;2023-03-08T06:17:51;99743.47;;;-0.05;93.13
71966;BME280;59836;52.132;5.442;2023-03-08T06:20:18;99741.63;;;-0.04;93.28
71966;BME280;59836;52.132;5.442;2023-03-08T06:22:44;99736.88;;;-0.02;93.34
71966;BME280;59836;52.132;5.442;2023-03-08T06:25:11;99730.72;;;-0.03;93.03
71966;BME280;59836;52.132;5.442;2023-03-08T06:27:37;99741.41;;;-0.03;93.18
71966;BME280;59836;52.132;5.442;2023-03-08T06:30:04;99735.84;;;-0.01;93.15
71966;BME280;59836;52.132;5.442;2023-03-08T06:32:37;99738.28;;;0.01;92.89
71966;BME280;59836;52.132;5.442;2023-03-08T06:35:04;99731.06;;;0.01;92.90
71966;BME280;59836;52.132;5.442;2023-03-08T06:37:32;99735.16;;;0.04;92.69
71966;BME280;59836;52.132;5.442;2023-03-08T06:40:06;99729.25;;;0.02;92.79
71966;BME280;59836;52.132;5.442;2023-03-08T06:42:34;99732.50;;;0.04;93.25
71966;BME280;59836;52.132;5.442;2023-03-08T06:45:08;99737.22;;;0.02;93.28
71966;BME280;59836;52.132;5.442;2023-03-08T06:47:47;99734.13;;;0.05;93.27
71966;BME280;59836;52.132;5.442;2023-03-08T06:50:14;99732.03;;;0.07;93.39
71966;BME280;59836;52.132;5.442;2023-03-08T06:52:41;99732.63;;;0.09;93.47
71966;BME280;59836;52.132;5.442;2023-03-08T06:55:08;99735.28;;;0.09;93.38
71966;BME280;59836;52.132;5.442;2023-03-08T06:57:34;99733.22;;;0.11;93.22
71966;BME280;59836;52.132;5.442;2023-03-08T07:00:01;99731.00;;;0.08;93.26
71966;BME280;59836;52.132;5.442;2023-03-08T07:02:28;99737.38;;;0.07;92.84
71966;BME280;59836;52.132;5.442;2023-03-08T07:04:55;99740.03;;;0.07;93.14
71966;BME280;59836;52.132;5.442;2023-03-08T07:07:21;99736.91;;;0.10;92.89
71966;BME280;59836;52.132;5.442;2023-03-08T07:09:47;99729.50;;;0.12;92.96
71966;BME280;59836;52.132;5.442;2023-03-08T07:12:14;99732.16;;;0.12;92.72
71966;BME280;59836;52.132;5.442;2023-03-08T07:14:40;99738.09;;;0.14;92.91
71966;BME280;59836;52.132;5.442;2023-03-08T07:17:07;99730.09;;;0.14;92.71
71966;BME280;59836;52.132;5.442;2023-03-08T07:19:33;99732.75;;;0.14;92.87
71966;BME280;59836;52.132;5.442;2023-03-08T07:21:59;99723.94;;;0.13;92.46
71966;BME280;59836;52.132;5.442;2023-03-08T07:24:26;99725.34;;;0.16;92.85
71966;BME280;59836;52.132;5.442;2023-03-08T07:26:52;99716.31;;;0.17;92.75
71966;BME280;59836;52.132;5.442;2023-03-08T07:29:18;99717.94;;;0.18;92.45
71966;BME280;59836;52.132;5.442;2023-03-08T07:31:45;99721.63;;;0.17;92.30
71966;BME280;59836;52.132;5.442;2023-03-08T07:34:11;99721.63;;;0.17;92.82
71966;BME280;59836;52.132;5.442;2023-03-08T07:36:38;99723.84;;;0.20;92.83
71966;BME280;59836;52.132;5.442;2023-03-08T07:39:05;99718.50;;;0.20;92.41
71966;BME280;59836;52.132;5.442;2023-03-08T07:41:32;99723.38;;;0.23;92.51
71966;BME280;59836;52.132;5.442;2023-03-08T07:43:59;99717.59;;;0.26;92.91
71966;BME280;59836;52.132;5.442;2023-03-08T07:46:27;99707.50;;;0.28;92.70
71966;BME280;59836;52.132;5.442;2023-03-08T07:48:54;99696.38;;;0.32;92.40
71966;BME280;59836;52.132;5.442;2023-03-08T07:51:21;99693.00;;;0.36;92.80
71966;BME280;59836;52.132;5.442;2023-03-08T07:53:48;99695.94;;;0.35;92.76
71966;BME280;59836;52.132;5.442;2023-03-08T07:56:16;99688.50;;;0.37;92.71
71966;BME280;59836;52.132;5.442;2023-03-08T07:58:42;99687.22;;;0.39;92.96
71966;BME280;59836;52.132;5.442;2023-03-08T08:01:11;99682.25;;;0.43;92.99
71966;BME280;59836;52.132;5.442;2023-03-08T08:03:38;99679.13;;;0.46;92.46
71966;BME280;59836;52.132;5.442;2023-03-08T08:06:05;99686.09;;;0.47;92.77
71966;BME280;59836;52.132;5.442;2023-03-08T08:08:32;99676.00;;;0.49;92.63
71966;BME280;59836;52.132;5.442;2023-03-08T08:10:59;99680.88;;;0.52;92.84
71966;BME280;59836;52.132;5.442;2023-03-08T08:13:25;99677.13;;;0.53;92.86
71966;BME280;59836;52.132;5.442;2023-03-08T08:15:59;99670.75;;;0.54;92.77
71966;BME280;59836;52.132;5.442;2023-03-08T08:18:26;99670.28;;;0.57;93.01
71966;BME280;59836;52.132;5.442;2023-03-08T08:21:00;99675.03;;;0.55;92.73
71966;BME280;59836;52.132;5.442;2023-03-08T08:23:28;99659.63;;;0.57;92.97
71966;BME280;59836;52.132;5.442;2023-03-08T08:25:55;99672.50;;;0.61;93.13
71966;BME280;59836;52.132;5.442;2023-03-08T08:28:23;99663.09;;;0.58;93.22
71966;BME280;59836;52.132;5.442;2023-03-08T08:31:01;99667.16;;;0.61;92.76
71966;BME280;59836;52.132;5.442;2023-03-08T08:33:30;99658.47;;;0.65;93.28
71966;BME280;59836;52.132;5.442;2023-03-08T08:35:57;99658.22;;;0.67;92.99
71966;BME280;59836;52.132;5.442;2023-03-08T08:38:24;99664.13;;;0.69;93.13
71966;BME280;59836;52.132;5.442;2023-03-08T08:40:51;99661.00;;;0.72;93.42
71966;BME280;59836;52.132;5.442;2023-03-08T08:43:18;99654.41;;;0.75;93.43
71966;BME280;59836;52.132;5.442;2023-03-08T08:45:53;99660.31;;;0.77;93.52
71966;BME280;59836;52.132;5.442;2023-03-08T08:48:19;99663.56;;;0.79;93.46
71966;BME280;59836;52.132;5.442;2023-03-08T08:50:46;99655.31;;;0.80;93.38
71966;BME280;59836;52.132;5.442;2023-03-08T08:53:13;99649.97;;;0.80;93.68
71966;BME280;59836;52.132;5.442;2023-03-08T08:55:39;99653.00;;;0.84;93.29
71966;BME280;59836;52.132;5.442;2023-03-08T08:58:08;99657.75;;;0.82;93.59
71966;BME280;59836;52.132;5.442;2023-03-08T09:00:35;99655.66;;;0.84;93.49
71966;BME280;59836;52.132;5.442;2023-03-08T09:03:03;99645.78;;;0.84;93.46
71966;BME280;59836;52.132;5.442;2023-03-08T09:05:31;99649.50;;;0.83;93.21
71966;BME280;59836;52.132;5.442;2023-03-08T09:07:59;99638.81;;;0.83;93.25
71966;BME280;59836;52.132;5.442;2023-03-08T09:10:28;99638.59;;;0.85;93.45
71966;BME280;59836;52.132;5.442;2023-03-08T09:12:55;99646.94;;;0.88;93.75
71966;BME280;59836;52.132;5.442;2023-03-08T09:15:24;99648.56;;;0.90;93.27
71966;BME280;59836;52.132;5.442;2023-03-08T09:17:50;99651.81;;;0.92;93.26
71966;BME280;59836;52.132;5.442;2023-03-08T09:20:17;99643.34;;;0.95;93.51
71966;BME280;59836;52.132;5.442;2023-03-08T09:22:46;99640.44;;;0.96;93.23
71966;BME280;59836;52.132;5.442;2023-03-08T09:25:12;99642.84;;;0.98;93.21
71966;BME280;59836;52.132;5.442;2023-03-08T09:27:40;99637.31;;;0.99;93.33
71966;BME280;59836;52.132;5.442;2023-03-08T09:30:13;99627.19;;;1.01;93.57
71966;BME280;59836;52.132;5.442;2023-03-08T09:32:39;99623.69;;;1.01;93.50
71966;BME280;59836;52.132;5.442;2023-03-08T09:35:06;99622.44;;;1.03;93.74
71966;BME280;59836;52.132;5.442;2023-03-08T09:37:33;99616.84;;;1.05;93.39
71966;BME280;59836;52.132;5.442;2023-03-08T09:39:59;99590.72;;;1.07;93.60
71966;BME280;59836;52.132;5.442;2023-03-08T09:42:28;99584.06;;;1.10;93.54
71966;BME280;59836;52.132;5.442;2023-03-08T09:45:23;99573.75;;;1.13;93.31
71966;BME280;59836;52.132;5.442;2023-03-08T09:50:31;99579.19;;;1.18;93.15
71966;BME280;59836;52.132;5.442;2023-03-08T09:55:58;99582.38;;;1.32;93.06
71966;BME280;59836;52.132;5.442;2023-03-08T09:58:42;99576.06;;;1.39;93.26
71966;BME280;59836;52.132;5.442;2023-03-08T10:01:35;99557.78;;;1.47;93.32
71966;BME280;59836;52.132;5.442;2023-03-08T10:04:13;99556.34;;;1.57;93.37
71966;BME280;59836;52.132;5.442;2023-03-08T10:07:07;99567.94;;;1.62;92.94
71966;BME280;59836;52.132;5.442;2023-03-08T10:09:37;99579.50;;;1.68;93.08
71966;BME280;59836;52.132;5.442;2023-03-08T10:12:22;99572.03;;;1.70;92.86
71966;BME280;59836;52.132;5.442;2023-03-08T10:15:07;99568.66;;;1.75;92.70
71966;BME280;59836;52.132;5.442;2023-03-08T10:17:56;99563.78;;;1.89;92.71
71966;BME280;59836;52.132;5.442;2023-03-08T10:20:29;99564.44;;;1.96;92.58
71966;BME280;59836;52.132;5.442;2023-03-08T10:23:05;99554.09;;;2.00;92.26
71966;BME280;59836;52.132;5.442;2023-03-08T10:25:33;99555.28;;;2.09;92.30
71966;BME280;59836;52.132;5.442;2023-03-08T10:28:02;99558.34;;;2.18;92.24
71966;BME280;59836;52.132;5.442;2023-03-08T10:30:56;99554.69;;;2.24;91.98
71966;BME280;59836;52.132;5.442;2023-03-08T10:33:23;99554.75;;;2.29;92.06
71966;BME280;59836;52.132;5.442;2023-03-08T10:35:59;99560.66;;;2.31;91.82
71966;BME280;59836;52.132;5.442;2023-03-08T10:38:30;99555.56;;;2.30;91.49
71966;BME280;59836;52.132;5.442;2023-03-08T10:41:02;99539.84;;;2.33;91.71
71966;BME280;59836;52.132;5.442;2023-03-08T10:43:37;99531.63;;;2.40;91.42
71966;BME280;59836;52.132;5.442;2023-03-08T10:46:27;99520.59;;;2.36;90.93
71966;BME280;59836;52.132;5.442;2023-03-08T10:49:15;99515.34;;;2.25;90.80
71966;BME280;59836;52.132;5.442;2023-03-08T10:51:57;99514.06;;;2.27;90.21
71966;BME280;59836;52.132;5.442;2023-03-08T10:54:24;99508.28;;;2.35;90.62
71966;BME280;59836;52.132;5.442;2023-03-08T10:56:58;99498.66;;;2.34;90.07
71966;BME280;59836;52.132;5.442;2023-03-08T10:59:33;99513.38;;;2.37;90.20
71966;BME280;59836;52.132;5.442;2023-03-08T11:02:23;99518.50;;;2.39;89.84
71966;BME280;59836;52.132;5.442;2023-03-08T11:04:51;99525.59;;;2.50;90.17
71966;BME280;59836;52.132;5.442;2023-03-08T11:07:29;99524.59;;;2.56;89.85
71966;BME280;59836;52.132;5.442;2023-03-08T11:10:13;99520.38;;;2.60;89.62
71966;BME280;59836;52.132;5.442;2023-03-08T11:12:41;99516.88;;;2.60;89.61
71966;BME280;59836;52.132;5.442;2023-03-08T11:15:16;99525.22;;;2.63;89.68
71966;BME280;59836;52.132;5.442;2023-03-08T11:18:12;99526.84;;;2.64;89.21
71966;BME280;59836;52.132;5.442;2023-03-08T11:20:51;99535.13;;;2.63;89.57
71966;BME280;59836;52.132;5.442;2023-03-08T11:23:29;99531.88;;;2.61;89.30
71966;BME280;59836;52.132;5.442;2023-03-08T11:26:22;99537.22;;;2.61;89.05
71966;BME280;59836;52.132;5.442;2023-03-08T11:29:08;99541.78;;;2.60;88.71
71966;BME280;59836;52.132;5.442;2023-03-08T11:32:05;99536.09;;;2.57;88.71
71966;BME280;59836;52.132;5.442;2023-03-08T11:34:57;99523.47;;;2.52;88.26
71966;BME280;59836;52.132;5.442;2023-03-08T11:40:58;99505.81;;;2.51;87.64
71966;BME280;59836;52.132;5.442;2023-03-08T11:46:31;99522.97;;;2.55;87.24
71966;BME280;59836;52.132;5.442;2023-03-08T11:49:16;99510.16;;;2.57;87.39
71966;BME280;59836;52.132;5.442;2023-03-08T11:51:52;99507.22;;;2.59;87.45
71966;BME280;59836;52.132;5.442;2023-03-08T11:54:50;99493.59;;;2.60;87.35
71966;BME280;59836;52.132;5.442;2023-03-08T11:57:19;99488.25;;;2.60;87.18
71966;BME280;59836;52.132;5.442;2023-03-08T11:59:57;99465.50;;;2.63;86.98
71966;BME280;59836;52.132;5.442;2023-03-08T12:02:38;99470.94;;;2.68;87.09
71966;BME280;59836;52.132;5.442;2023-03-08T12:05:20;99472.59;;;2.74;87.35
71966;BME280;59836;52.132;5.442;2023-03-08T12:07:54;99470.78;;;2.80;87.34
71966;BME280;59836;52.132;5.442;2023-03-08T12:10:25;99463.81;;;2.79;86.60
71966;BME280;59836;52.132;5.442;2023-03-08T12:15:33;99481.97;;;2.77;86.95
71966;BME280;59836;52.132;5.442;2023-03-08T12:18:14;99480.94;;;2.78;86.60
71966;BME280;59836;52.132;5.442;2023-03-08T12:20:43;99468.03;;;2.75;86.17
71966;BME280;59836;52.132;5.442;2023-03-08T12:23:26;99460.28;;;2.73;86.05
71966;BME280;59836;52.132;5.442;2023-03-08T12:26:02;99459.50;;;2.78;86.32
71966;BME280;59836;52.132;5.442;2023-03-08T12:28:37;99461.69;;;2.81;86.04
71966;BME280;59836;52.132;5.442;2023-03-08T12:31:20;99453.66;;;2.81;85.93
71966;BME280;59836;52.132;5.442;2023-03-08T12:33:55;99452.34;;;2.84;86.00
71966;BME280;59836;52.132;5.442;2023-03-08T12:36:35;99443.00;;;2.86;86.38
71966;BME280;59836;52.132;5.442;2023-03-08T12:39:23;99449.97;;;2.87;85.60
71966;BME280;59836;52.132;5.442;2023-03-08T12:42:24;99445.44;;;2.88;85.49
71966;BME280;59836;52.132;5.442;2023-03-08T12:44:43;99463.91;;;2.89;85.82
71966;BME280;59836;52.132;5.442;2023-03-08T12:49:41;99474.13;;;2.92;85.94
71966;BME280;59836;52.132;5.442;2023-03-08T12:54:56;99471.69;;;2.91;85.77
71966;BME280;59836;52.132;5.442;2023-03-08T12:57:28;99468.69;;;2.87;85.73
71966;BME280;59836;52.132;5.442;2023-03-08T12:59:58;99459.31;;;2.85;85.60
71966;BME280;59836;52.132;5.442;2023-03-08T13:02:30;99453.69;;;2.86;85.33
71966;BME280;59836;52.132;5.442;2023-03-08T13:08:01;99437.69;;;2.91;85.61
71966;BME280;59836;52.132;5.442;2023-03-08T13:10:50;99426.41;;;2.89;85.37
71966;BME280;59836;52.132;5.442;2023-03-08T13:18:44;99452.75;;;2.98;85.17
71966;BME280;59836;52.132;5.442;2023-03-08T13:23:59;99456.75;;;2.95;84.37
71966;BME280;59836;52.132;5.442;2023-03-08T13:29:28;99451.69;;;2.99;84.61
71966;BME280;59836;52.132;5.442;2023-03-08T13:31:55;99460.28;;;3.01;84.52
71966;BME280;59836;52.132;5.442;2023-03-08T13:34:28;99463.78;;;3.01;84.70
71966;BME280;59836;52.132;5.442;2023-03-08T13:36:55;99459.22;;;3.02;84.66
71966;BME280;59836;52.132;5.442;2023-03-08T13:39:26;99455.47;;;3.03;84.71
71966;BME280;59836;52.132;5.442;2023-03-08T13:42:14;99454.97;;;3.06;84.97
71966;BME280;59836;52.132;5.442;2023-03-08T13:44:40;99449.09;;;3.09;84.96
71966;BME280;59836;52.132;5.442;2023-03-08T13:47:24;99448.03;;;3.10;84.37
71966;BME280;59836;52.132;5.442;2023-03-08T13:49:53;99444.00;;;3.07;84.30
71966;BME280;59836;52.132;5.442;2023-03-08T13:52:23;99445.63;;;3.08;84.75
71966;BME280;59836;52.132;5.442;2023-03-08T13:54:54;99441.06;;;3.09;84.73
71966;BME280;59836;52.132;5.442;2023-03-08T13:57:24;99443.22;;;3.12;84.47
71966;BME280;59836;52.132;5.442;2023-03-08T13:59:54;99428.22;;;3.11;84.99